Nearby METAR Reports

Actuele Vliegveldwaarnemingen NL (METAR).Zie KNMI uitleg METAR hier

EHAM - Amsterdam/Schiph, Netherlands
Distance from station: ONO 18km
Updated: 30/11/2022 04:25
Meestal bewolkt
Meestal bewolkt
 Wind van varies
Wind: varies 2 km/h
Temperatuur: 7°C
Dauwpunt: 7°C
Vochtigheid: 100%
Barometer: 1023 hPa
Clouds: Meestal bewolkt
Visibility: 7 km
Cloud details: Gedeeltelijk bewolkt 457 m
Meestal bewolkt 853 m
2022/11/30 03:25 EHAM 300325Z VRB01KT 7000 SCT015 BKN028 07/07 Q1023 NOSIG
EHKD - DE KOOY/DE KOOY
Updated: 30/11/2022 04:25
Mist, Zwaar bewolkt
Mist, Zwaar bewolkt
 Wind van ZZW
Wind: ZZW 7 km/h
Temperatuur: 7°C
Wind Chill: 6°C
Dauwpunt: 7°C
Vochtigheid: 100%
Barometer: 1022 hPa
Overzicht: Mist
Clouds: Zwaar bewolkt
Visibility: 5 km
Cloud details: Zwaar bewolkt 1097 m
2022/11/30 03:25 EHKD 300325Z AUTO 21004KT 5000 BR OVC036 07/07 Q1022 REDZ WHT
 
EHLW - LEEUWARDEN/LEEUWARDEN
Updated: 30/11/2022 04:25
Fog, Meestal bewolkt
Fog, Meestal bewolkt
 Wind van varies
Wind: varies 4 km/h
Temperatuur: 2°C
Dauwpunt: 1°C
Vochtigheid: 93%
Barometer: 1022 hPa
Overzicht: Fog
Clouds: Meestal bewolkt
Visibility: 0 km
Cloud details: Meestal bewolkt 0 m
2022/11/30 03:25 EHLW 300325Z AUTO VRB02KT 0450 FG BKN000 02/01 Q1022 RED
EHVK - VOLKEL/VOLKEL
Updated: 30/11/2022 04:32
Mist, Zwaar bewolkt
Mist, Zwaar bewolkt
 Wind van NW
Wind: NW 4 km/h
Temperatuur: 6°C
Dauwpunt: 6°C
Vochtigheid: 100%
Barometer: 1022 hPa
Overzicht: Mist
Clouds: Zwaar bewolkt
Visibility: 6 km
Cloud details: Zwaar bewolkt 1615 m
2022/11/30 03:32 EHVK 300332Z AUTO 32002KT 6000 BR OVC053 06/06 Q1022 WHT
 
EHFS - VLISSINGEN
Updated: 30/11/2022 04:25
Zwaar bewolkt
Zwaar bewolkt
 Wind van ZW
Wind: ZW 6 km/h
Temperatuur: 6°C
Dauwpunt: 5°C
Vochtigheid: 93%
Barometer: 1023 hPa
Clouds: Zwaar bewolkt
Visibility: 7 km
Cloud details: Few Clouds 91 m
Gedeeltelijk bewolkt 1036 m
Zwaar bewolkt 1219 m
2022/11/30 03:25 EHFS 300325Z AUTO 23003KT 7000 FEW003/// SCT034/// OVC040/// 06/05 Q1023
EHEH - EINDHOVEN/EINDHOVEN
Updated: 30/11/2022 04:25
Mist, Zwaar bewolkt
Mist, Zwaar bewolkt
 Wind van NW
Wind: NW 4 km/h
Temperatuur: 7°C
Dauwpunt: 7°C
Vochtigheid: 100%
Barometer: 1023 hPa
Overzicht: Mist
Clouds: Zwaar bewolkt
Visibility: 2 km
Cloud details: Few Clouds 61 m
Zwaar bewolkt 488 m
2022/11/30 03:25 EHEH 300325Z AUTO 31002KT 2100 BR FEW002 OVC016 07/07 Q1023 YLO
 
EHGR - GILZE-RIJEN/GILZE-RIJEN
Updated: 30/11/2022 04:25
Fog, Zwaar bewolkt
Fog, Zwaar bewolkt
 Wind van ZZW
Wind: ZZW 2 km/h
Temperatuur: 6°C
Dauwpunt: 6°C
Vochtigheid: 100%
Barometer: 1023 hPa
Overzicht: Fog
Clouds: Zwaar bewolkt
Visibility: 0 km
Cloud details: Zwaar bewolkt 0 m
2022/11/30 03:25 EHGR 300325Z AUTO 21001KT 0300 FG OVC000 06/06 Q1023 RED
EHDL - ARNHEM/DEELEN
Updated: 30/11/2022 04:25
Mist, Zwaar bewolkt
Mist, Zwaar bewolkt
 Wind van NNW
Wind: NNW 6 km/h
Temperatuur: 5°C
Dauwpunt: 5°C
Vochtigheid: 100%
Barometer: 1022 hPa
Overzicht: Mist
Clouds: Zwaar bewolkt
Visibility: 2 km
Cloud details: Zwaar bewolkt 1646 m
2022/11/30 03:25 EHDL 300325Z AUTO 34003KT 330V030 2200 BR OVC054 05/05 Q1022 YLO
 
EHBK - MAASTRICHT/MAASTRICHT-AACHEN
Updated: 30/11/2022 04:25
Mist, Few clouds
Mist, Few clouds
 Wind van varies
Wind: varies 4 km/h
Temperatuur: 6°C
Dauwpunt: 6°C
Vochtigheid: 100%
Barometer: 1022 hPa
Overzicht: Mist
Clouds: Few Clouds
Visibility: 2 km
Cloud details: Meestal bewolkt 30 m
Meestal bewolkt 61 m
Few Clouds 457 m
2022/11/30 03:25 EHBK 300325Z AUTO VRB02KT 1800 BR BKN001 BKN002 FEW015CB 06/06 Q1022 REDZ